Smith Reynolds Airport
KINT : now visible

Airfield :











YOU CAN JOIN US ON...

 
LOGIN :

Register | Disclaimer

   EN    FR    IT 

 









Legend :    VFR   Marginal VFR   IFR   Intensive IFR   Very Intensive IFR
Visi :
Ceiling :
>= 8 km
>= 3000ft
5 to 8 km
1000 to 3000 ft
1500m to 5 km
500 to 1000 ft
800 to 1500m
200 to 500 ft
< 800m
< 200 ft
Symbols :   Thunderstorms  Fog  Heavy snow  Heavy precipitations  Wind > 20 kt







- Airport Elevation : 969 ft
- IATA code : INT


KINT - Smith Reynolds

CURRENT METAR :
  • 252254Z 23005KT 10SM FEW110 24/13 A2987 RMK AO2 SLP106 T02390133

EXPIRED METARs :
  • 252154Z 25004KT 10SM BKN110 24/15 A2988 RMK AO2 SLP108 T02440150
  • 252054Z VRB03KT 10SM CLR 25/13 A2986 RMK AO2 SLP102 T02500133 56012

TAF KINT
Valid from the 26 at 00:00 until the 27 at 00:00 UTC


252320Z 2600/2624 22006KT P6SM FEW050 BKN150
FM260700 20007KT P6SM VCSH FEW025 BKN050 OVC100
TEMPO 2608/2611 -SHRA BKN015
FM261100 22011G22KT P6SM BKN030
FM261600 22012G24KT 5SM -SHRA BR OVC035
FM262100 30018G28KT P6SM SCT250
KZTL FIR / North America



MET'MAP, your aeronautical weather chart ! - Copyright ORBIFLY December 2007 - Disclaimer

ORBIFLY MET'MAP TEAM :

Programming & Development : Alexandra Zaïnal
Concept & Development : Baudouin d'Aumeries
Co-Development & Prog : Marc-Olivier Méhu
Technical & hardware support : Manuel Goepfert

Contact : metmap@orbifly.com




SOURCES & CREDITS :

   NOAA       Earth
Advisory